createdAt,value
2023-02-21T00:00:04.975Z,23.77
2023-02-21T00:02:50.692Z,24.27
2023-02-21T00:05:36.776Z,21.27
2023-02-21T00:08:24.252Z,23.60
2023-02-21T00:11:10.758Z,24.45
2023-02-21T00:13:57.127Z,22.75
2023-02-21T00:16:43.123Z,20.27
2023-02-21T00:19:30.860Z,22.23
2023-02-21T00:22:16.671Z,22.80
2023-02-21T00:25:08.490Z,24.13
2023-02-21T00:27:54.140Z,23.40
2023-02-21T00:30:40.390Z,23.38
2023-02-21T00:33:26.617Z,23.95
2023-02-21T00:36:12.398Z,23.17
2023-02-21T00:38:58.044Z,25.15
2023-02-21T00:41:45.014Z,26.00
2023-02-21T00:44:30.952Z,24.30
2023-02-21T00:47:16.840Z,22.52
2023-02-21T00:50:03.044Z,24.55
2023-02-21T00:52:52.200Z,22.90
2023-02-21T00:55:38.690Z,21.08
2023-02-21T00:58:26.425Z,21.42
2023-02-21T01:01:12.602Z,20.15
2023-02-21T01:03:58.701Z,19.67
2023-02-21T01:06:46.444Z,19.83
2023-02-21T01:09:32.311Z,20.73
2023-02-21T01:12:18.531Z,19.05
2023-02-21T01:15:11.172Z,19.67
2023-02-21T01:17:56.754Z,18.73
2023-02-21T01:20:43.928Z,18.67
2023-02-21T01:23:30.221Z,20.65
2023-02-21T01:26:15.860Z,20.10
2023-02-21T01:29:01.775Z,20.65
2023-02-21T01:31:49.063Z,20.83
2023-02-21T01:34:36.254Z,21.48
2023-02-21T01:37:22.214Z,20.67
2023-02-21T01:40:14.105Z,20.27
2023-02-21T01:43:00.487Z,21.73
2023-02-21T01:46:03.362Z,23.90
2023-02-21T01:48:53.810Z,22.70
2023-02-21T01:51:45.605Z,23.60
2023-02-21T01:54:32.373Z,24.00
2023-02-21T01:57:21.326Z,23.42
2023-02-21T02:00:08.150Z,23.75
2023-02-21T02:03:13.628Z,26.65
2023-02-21T02:06:03.776Z,25.25
2023-02-21T02:08:50.873Z,26.17
2023-02-21T02:12:05.426Z,27.90
2023-02-21T02:15:24.704Z,28.45
2023-02-21T02:18:24.879Z,27.10
2023-02-21T02:21:53.138Z,29.73
2023-02-21T02:24:49.797Z,28.83
2023-02-21T02:27:43.998Z,28.40
2023-02-21T02:31:05.142Z,30.25
2023-02-21T02:34:27.287Z,29.45
2023-02-21T02:37:11.246Z,29.70
2023-02-21T02:39:48.792Z,30.42
2023-02-21T02:42:35.190Z,31.15
2023-02-21T02:45:14.093Z,30.15
2023-02-21T02:47:46.095Z,31.17
2023-02-21T02:50:17.872Z,31.55
2023-02-21T02:52:56.485Z,31.50
2023-02-21T02:55:35.892Z,32.65
2023-02-21T02:58:05.139Z,30.23
2023-02-21T03:00:36.248Z,31.40
2023-02-21T03:03:36.639Z,31.67
2023-02-21T03:06:23.393Z,30.25
2023-02-21T03:09:02.745Z,29.98
2023-02-21T03:11:31.551Z,31.20
2023-02-21T03:14:08.259Z,29.38
2023-02-21T03:16:42.772Z,28.30
2023-02-21T03:19:17.799Z,29.05
2023-02-21T03:21:51.093Z,29.42
2023-02-21T03:24:22.642Z,28.48
2023-02-21T03:26:55.207Z,28.65
2023-02-21T03:29:24.186Z,30.92
2023-02-21T03:31:59.828Z,28.13
2023-02-21T03:34:29.569Z,30.02
2023-02-21T03:36:58.645Z,30.45
2023-02-21T03:39:29.284Z,30.15
2023-02-21T03:41:57.565Z,29.73
2023-02-21T03:44:25.828Z,31.23
2023-02-21T03:46:54.134Z,28.75
2023-02-21T03:49:22.453Z,29.92
2023-02-21T03:51:50.700Z,30.63
2023-02-21T03:54:18.976Z,31.55
2023-02-21T03:56:49.111Z,30.73
2023-02-21T03:59:17.552Z,30.10
2023-02-21T04:01:45.879Z,31.10
2023-02-21T04:04:15.762Z,32.33
2023-02-21T04:06:44.021Z,31.70
2023-02-21T04:09:12.224Z,32.22
2023-02-21T04:11:44.583Z,32.05
2023-02-21T04:14:14.899Z,31.40
2023-02-21T04:16:43.643Z,30.85
2023-02-21T04:19:11.865Z,31.73
2023-02-21T04:21:40.132Z,34.08
2023-02-21T04:24:12.931Z,33.08
2023-02-21T04:26:41.385Z,30.80
2023-02-21T04:29:09.848Z,33.35
2023-02-21T04:31:39.828Z,31.55
2023-02-21T04:34:12.258Z,32.00
2023-02-21T04:36:40.990Z,31.20
2023-02-21T04:39:10.604Z,32.50
2023-02-21T04:41:38.920Z,30.40
2023-02-21T04:44:07.535Z,32.53
2023-02-21T04:46:36.170Z,32.10
2023-02-21T04:49:06.202Z,31.17
2023-02-21T04:51:34.388Z,31.63
2023-02-21T04:54:03.314Z,33.20
2023-02-21T04:56:32.679Z,33.67
2023-02-21T04:59:02.374Z,31.50
2023-02-21T05:01:32.243Z,32.35
2023-02-21T05:04:01.197Z,31.52
2023-02-21T05:06:32.234Z,33.13
2023-02-21T05:09:01.791Z,34.47
2023-02-21T05:11:30.159Z,32.38
2023-02-21T05:13:58.543Z,31.48
2023-02-21T05:16:26.815Z,33.13
2023-02-21T05:18:55.285Z,35.80
2023-02-21T05:21:23.603Z,35.70
2023-02-21T05:24:02.168Z,33.80
2023-02-21T05:26:37.090Z,34.25
2023-02-21T05:29:06.481Z,35.08
2023-02-21T05:31:35.066Z,34.92
2023-02-21T05:34:03.490Z,35.65
2023-02-21T05:36:31.726Z,35.30
2023-02-21T05:39:01.454Z,34.42
2023-02-21T05:41:29.766Z,34.75
2023-02-21T05:43:58.122Z,36.08
2023-02-21T05:46:29.499Z,33.13
2023-02-21T05:48:59.290Z,35.55
2023-02-21T05:51:28.451Z,33.35
2023-02-21T05:53:56.944Z,34.78
2023-02-21T05:56:26.646Z,35.10
2023-02-21T05:58:54.935Z,35.55
2023-02-21T06:01:23.197Z,34.05
2023-02-21T06:03:51.583Z,35.63
2023-02-21T06:06:20.554Z,34.33
2023-02-21T06:08:50.474Z,36.03
2023-02-21T06:11:28.037Z,33.97
2023-02-21T06:13:58.526Z,34.45
2023-02-21T06:16:28.897Z,33.92
2023-02-21T06:18:58.383Z,35.33
2023-02-21T06:21:26.666Z,35.47
2023-02-21T06:23:54.907Z,36.33
2023-02-21T06:26:26.302Z,34.05
2023-02-21T06:28:54.971Z,33.70
2023-02-21T06:31:23.416Z,36.10
2023-02-21T06:33:52.225Z,36.60
2023-02-21T06:36:23.618Z,36.72
2023-02-21T06:38:56.128Z,35.83
2023-02-21T06:41:28.773Z,37.72
2023-02-21T06:43:59.149Z,36.63
2023-02-21T06:46:30.768Z,37.78
2023-02-21T06:48:59.909Z,35.03
2023-02-21T06:51:29.595Z,34.97
2023-02-21T06:53:59.231Z,36.28
2023-02-21T06:56:29.415Z,36.35
2023-02-21T06:58:58.206Z,34.88
2023-02-21T07:01:31.379Z,37.60
2023-02-21T07:04:00.276Z,37.83
2023-02-21T07:06:29.921Z,36.05
2023-02-21T07:08:58.592Z,36.40
2023-02-21T07:11:28.757Z,34.70
2023-02-21T07:14:07.332Z,34.58
2023-02-21T07:16:35.590Z,36.13
2023-02-21T07:19:04.313Z,33.90
2023-02-21T07:21:32.846Z,33.20
2023-02-21T07:24:01.126Z,35.25
2023-02-21T07:26:30.764Z,34.10
2023-02-21T07:28:58.966Z,35.00
2023-02-21T07:31:27.349Z,35.15
2023-02-21T07:33:55.798Z,36.22
2023-02-21T07:36:24.694Z,35.75
2023-02-21T07:38:53.119Z,35.45
2023-02-21T07:41:21.504Z,36.55
2023-02-21T07:43:51.193Z,33.72
2023-02-21T07:46:20.448Z,35.05
2023-02-21T07:48:48.683Z,34.50
2023-02-21T07:51:17.475Z,32.75
2023-02-21T07:53:46.074Z,33.50
2023-02-21T07:56:14.693Z,34.78
2023-02-21T07:58:43.094Z,33.05
2023-02-21T08:01:13.228Z,35.83
2023-02-21T08:03:41.998Z,35.42
2023-02-21T08:06:11.663Z,36.15
2023-02-21T08:08:40.029Z,35.88
2023-02-21T08:11:08.287Z,36.17
2023-02-21T08:13:36.465Z,35.22
2023-02-21T08:16:05.382Z,35.53
2023-02-21T08:18:36.710Z,35.83
2023-02-21T08:21:05.543Z,37.95
2023-02-21T08:23:33.893Z,37.05
2023-02-21T08:26:06.351Z,39.03
2023-02-21T08:28:34.739Z,39.22
2023-02-21T08:31:03.175Z,38.38
2023-02-21T08:33:31.967Z,39.47
2023-02-21T08:36:01.978Z,39.13
2023-02-21T08:38:30.612Z,42.70
2023-02-21T08:40:58.895Z,41.15
2023-02-21T08:43:27.947Z,42.40
2023-02-21T08:45:56.328Z,42.33
2023-02-21T08:48:24.689Z,43.22
2023-02-21T08:50:53.775Z,44.22
2023-02-21T08:53:23.790Z,45.22
2023-02-21T08:55:52.468Z,44.28
2023-02-21T08:58:20.921Z,45.30
2023-02-21T09:00:49.322Z,45.33
2023-02-21T09:03:21.507Z,45.38
2023-02-21T09:05:49.907Z,45.45
2023-02-21T09:08:20.823Z,47.40
2023-02-21T09:10:50.628Z,44.92
2023-02-21T09:13:19.168Z,46.22
2023-02-21T09:15:47.388Z,45.03
2023-02-21T09:18:16.239Z,45.28
2023-02-21T09:20:52.055Z,45.35
2023-02-21T09:23:21.226Z,45.83
2023-02-21T09:25:51.097Z,45.72
2023-02-21T09:28:20.150Z,44.63
2023-02-21T09:30:48.840Z,45.80
2023-02-21T09:33:20.569Z,44.15
2023-02-21T09:35:48.758Z,42.35
2023-02-21T09:38:17.023Z,42.50
2023-02-21T09:40:50.976Z,41.40
2023-02-21T09:43:27.154Z,40.65
2023-02-21T09:46:00.348Z,39.47
2023-02-21T09:48:29.897Z,38.97
2023-02-21T09:51:02.898Z,38.17
2023-02-21T09:53:35.406Z,38.28
2023-02-21T09:56:10.144Z,37.28
2023-02-21T09:58:43.868Z,35.45
2023-02-21T10:01:27.262Z,34.63
2023-02-21T10:04:15.223Z,34.50
2023-02-21T10:06:51.367Z,33.75
2023-02-21T10:09:29.165Z,31.92
2023-02-21T10:12:12.123Z,30.98
2023-02-21T10:15:02.809Z,29.70
2023-02-21T10:17:39.790Z,30.10
2023-02-21T10:20:18.913Z,28.13
2023-02-21T10:22:49.304Z,27.92
2023-02-21T10:25:28.864Z,28.00
2023-02-21T10:28:00.805Z,25.20
2023-02-21T10:30:41.151Z,26.80
2023-02-21T10:33:10.203Z,23.33
2023-02-21T10:35:40.594Z,22.52
2023-02-21T10:38:14.028Z,22.35
2023-02-21T10:40:46.471Z,22.13
2023-02-21T10:43:20.912Z,20.92
2023-02-21T10:45:55.067Z,21.33
2023-02-21T10:48:32.170Z,19.65
2023-02-21T10:51:10.374Z,20.80
2023-02-21T10:53:40.838Z,20.42
2023-02-21T10:56:26.032Z,19.30
2023-02-21T10:58:59.828Z,19.25
2023-02-21T11:01:39.812Z,18.08
2023-02-21T11:04:25.796Z,19.23
2023-02-21T11:06:58.037Z,19.98
2023-02-21T11:09:36.767Z,18.15
2023-02-21T11:12:21.507Z,17.88
2023-02-21T11:17:49.840Z,17.83
2023-02-21T11:20:23.527Z,18.25
2023-02-21T11:22:52.759Z,17.75
2023-02-21T11:25:28.603Z,17.63
2023-02-21T11:28:07.086Z,17.77
2023-02-21T11:30:41.146Z,16.75
2023-02-21T11:33:11.469Z,17.42
2023-02-21T11:35:47.800Z,16.98
2023-02-21T11:38:36.021Z,17.20
2023-02-21T11:41:17.816Z,17.38
2023-02-21T11:43:50.717Z,16.45
2023-02-21T11:46:41.028Z,15.55
2023-02-21T11:49:22.086Z,19.30
2023-02-21T11:51:55.313Z,16.60
2023-02-21T11:54:28.366Z,17.17
2023-02-21T11:57:05.531Z,18.60
2023-02-21T11:59:47.939Z,15.95
2023-02-21T12:02:50.812Z,15.23
2023-02-21T12:05:36.848Z,15.43
2023-02-21T12:08:28.140Z,15.70
2023-02-21T12:11:07.949Z,15.45
2023-02-21T12:13:53.751Z,14.52
2023-02-21T12:16:37.457Z,14.00
2023-02-21T12:19:24.639Z,13.07
2023-02-21T12:22:18.122Z,12.77
2023-02-21T12:25:01.335Z,12.10
2023-02-21T12:27:40.964Z,12.93
2023-02-21T12:30:27.746Z,11.68
2023-02-21T12:33:08.892Z,12.82
2023-02-21T12:36:20.800Z,14.30
2023-02-21T12:39:02.067Z,10.43
2023-02-21T12:41:51.261Z,13.13
2023-02-21T12:44:25.486Z,12.00
2023-02-21T12:47:00.144Z,11.18
2023-02-21T12:49:35.214Z,11.70
2023-02-21T12:52:15.721Z,11.00
2023-02-21T12:54:53.661Z,10.93
2023-02-21T12:57:29.734Z,11.02
2023-02-21T13:00:07.919Z,10.20
2023-02-21T13:02:45.795Z,11.57
2023-02-21T13:05:19.887Z,11.63
2023-02-21T13:07:55.267Z,11.18
2023-02-21T13:10:29.579Z,11.27
2023-02-21T13:13:02.457Z,11.80
2023-02-21T13:15:32.244Z,12.63
2023-02-21T13:18:13.214Z,12.85
2023-02-21T13:20:45.103Z,12.93
2023-02-21T13:23:33.334Z,12.27
2023-02-21T13:26:26.948Z,12.15
2023-02-21T13:28:56.882Z,11.50
2023-02-21T13:31:28.684Z,11.75
2023-02-21T13:34:01.131Z,11.25
2023-02-21T13:36:33.810Z,11.50
2023-02-21T13:39:13.563Z,10.70
2023-02-21T13:41:47.079Z,10.48
2023-02-21T13:44:27.081Z,11.80
2023-02-21T13:47:14.298Z,11.48
2023-02-21T13:49:54.518Z,11.63
2023-02-21T13:52:54.490Z,12.20
2023-02-21T13:55:27.315Z,13.23
2023-02-21T13:58:46.339Z,12.93
2023-02-21T14:01:46.649Z,13.55
2023-02-21T14:05:01.871Z,13.25
2023-02-21T14:07:49.505Z,14.30
2023-02-21T14:10:40.132Z,13.98
2023-02-21T14:13:23.559Z,12.85
2023-02-21T14:16:00.764Z,12.15
2023-02-21T14:18:32.710Z,12.43
2023-02-21T14:21:03.718Z,11.48
2023-02-21T14:23:48.776Z,12.25
2023-02-21T14:26:48.163Z,12.10
2023-02-21T14:29:41.481Z,11.55
2023-02-21T14:32:33.714Z,11.40
2023-02-21T14:35:04.881Z,11.60
2023-02-21T14:37:37.340Z,11.82
2023-02-21T14:40:26.054Z,12.07
2023-02-21T14:43:21.192Z,11.75
2023-02-21T14:46:08.531Z,11.95
2023-02-21T14:48:59.087Z,13.60
2023-02-21T14:51:58.193Z,13.10
2023-02-21T14:55:04.634Z,13.68
2023-02-21T14:58:07.285Z,13.65
2023-02-21T15:00:49.749Z,13.85
2023-02-21T15:03:23.617Z,13.88
2023-02-21T15:06:04.231Z,13.18
2023-02-21T15:08:43.751Z,13.68
2023-02-21T15:11:27.806Z,14.30
2023-02-21T15:14:23.727Z,13.80
2023-02-21T15:16:58.141Z,12.77
2023-02-21T15:19:33.512Z,13.10
2023-02-21T15:22:24.505Z,11.60
2023-02-21T15:25:15.726Z,11.90
2023-02-21T15:28:08.901Z,11.10
2023-02-21T15:30:40.879Z,11.05
2023-02-21T15:33:23.338Z,12.40
2023-02-21T15:35:55.793Z,13.07
2023-02-21T15:38:34.695Z,13.52
2023-02-21T15:41:09.002Z,12.50
2023-02-21T15:43:47.959Z,11.90
2023-02-21T15:46:21.377Z,11.15
2023-02-21T15:48:51.222Z,10.40
2023-02-21T15:51:20.330Z,10.73
2023-02-21T15:54:22.213Z,10.80
2023-02-21T15:57:02.203Z,10.10
2023-02-21T15:59:32.667Z,10.00
2023-02-21T16:02:25.121Z,9.18
2023-02-21T16:04:54.875Z,9.80
2023-02-21T16:07:30.284Z,10.95
2023-02-21T16:10:08.078Z,10.15
2023-02-21T16:12:39.781Z,11.60
2023-02-21T16:15:23.329Z,12.82
2023-02-21T16:17:56.842Z,12.57
2023-02-21T16:20:32.052Z,13.98
2023-02-21T16:23:26.319Z,13.40
2023-02-21T16:26:20.738Z,14.70
2023-02-21T16:28:49.180Z,15.15
2023-02-21T16:31:26.507Z,13.50
2023-02-21T16:33:55.177Z,16.67
2023-02-21T16:36:28.503Z,16.73
2023-02-21T16:38:57.453Z,16.83
2023-02-21T16:41:28.062Z,16.70
2023-02-21T16:43:56.808Z,17.17
2023-02-21T16:46:30.332Z,17.85
2023-02-21T16:49:00.064Z,17.85
2023-02-21T16:51:37.049Z,17.35
2023-02-21T16:54:09.480Z,17.65
2023-02-21T16:56:40.882Z,17.92
2023-02-21T16:59:14.333Z,20.20
2023-02-21T17:01:43.928Z,18.58
2023-02-21T17:04:20.569Z,19.77
2023-02-21T17:06:53.916Z,19.63
2023-02-21T17:09:26.089Z,18.52
2023-02-21T17:11:56.534Z,20.67
2023-02-21T17:14:24.927Z,20.08
2023-02-21T17:16:54.376Z,20.35
2023-02-21T17:19:23.781Z,20.98
2023-02-21T17:21:53.906Z,22.13
2023-02-21T17:24:22.339Z,23.38
2023-02-21T17:26:55.142Z,22.98
2023-02-21T17:29:25.564Z,20.30
2023-02-21T17:31:58.789Z,19.58
2023-02-21T17:34:27.636Z,18.83
2023-02-21T17:36:55.940Z,18.90
2023-02-21T17:39:26.578Z,18.98
2023-02-21T17:41:56.416Z,18.58
2023-02-21T17:44:28.649Z,19.30
2023-02-21T17:46:58.876Z,18.38
2023-02-21T17:49:29.702Z,18.98
2023-02-21T17:51:57.921Z,20.17
2023-02-21T17:54:27.086Z,20.67
2023-02-21T17:56:56.827Z,20.58
2023-02-21T17:59:25.262Z,20.52
2023-02-21T18:01:56.567Z,21.05
2023-02-21T18:04:25.596Z,22.17
2023-02-21T18:06:54.105Z,22.15
2023-02-21T18:09:22.455Z,21.50
2023-02-21T18:11:51.741Z,21.95
2023-02-21T18:14:23.423Z,21.15
2023-02-21T18:16:51.769Z,21.13
2023-02-21T18:19:23.330Z,20.40
2023-02-21T18:22:00.850Z,21.52
2023-02-21T18:24:29.153Z,21.48
2023-02-21T18:26:59.086Z,20.27
2023-02-21T18:29:32.165Z,20.27
2023-02-21T18:32:00.911Z,19.90
2023-02-21T18:34:29.375Z,20.42
2023-02-21T18:36:57.640Z,20.40
2023-02-21T18:39:26.376Z,19.20
2023-02-21T18:41:54.938Z,21.25
2023-02-21T18:44:23.576Z,20.95
2023-02-21T18:46:55.435Z,20.25
2023-02-21T18:49:27.657Z,20.08
2023-02-21T18:51:55.996Z,22.92
2023-02-21T18:54:24.760Z,24.83
2023-02-21T18:56:54.069Z,23.25
2023-02-21T18:59:24.102Z,24.80
2023-02-21T19:01:58.103Z,25.25
2023-02-21T19:04:28.503Z,29.27
2023-02-21T19:06:56.788Z,31.48
2023-02-21T19:09:25.109Z,35.75
2023-02-21T19:11:57.086Z,34.85
2023-02-21T19:14:25.383Z,39.05
2023-02-21T19:16:55.208Z,37.40
2023-02-21T19:19:23.498Z,38.97
2023-02-21T19:21:51.909Z,39.38
2023-02-21T19:24:20.290Z,40.38
2023-02-21T19:26:48.873Z,39.03
2023-02-21T19:29:17.857Z,39.50
2023-02-21T19:31:46.160Z,39.58
2023-02-21T19:34:16.824Z,43.00
2023-02-21T19:36:48.322Z,38.55
2023-02-21T19:39:19.041Z,40.88
2023-02-21T19:41:48.099Z,38.50
2023-02-21T19:44:16.711Z,39.55
2023-02-21T19:46:45.184Z,38.45
2023-02-21T19:49:18.169Z,38.17
2023-02-21T19:51:56.440Z,39.92
2023-02-21T19:54:30.007Z,37.33
2023-02-21T19:56:58.706Z,37.30
2023-02-21T19:59:29.390Z,37.20
2023-02-21T20:01:59.363Z,36.47
2023-02-21T20:04:30.560Z,35.83
2023-02-21T20:06:59.021Z,35.50
2023-02-21T20:09:27.848Z,35.97
2023-02-21T20:11:56.789Z,33.88
2023-02-21T20:14:25.106Z,33.65
2023-02-21T20:16:53.830Z,34.05
2023-02-21T20:19:27.854Z,34.20
2023-02-21T20:21:58.171Z,34.58
2023-02-21T20:24:26.491Z,32.72
2023-02-21T20:26:56.920Z,32.88
2023-02-21T20:29:25.837Z,32.00
2023-02-21T20:31:55.065Z,30.45
2023-02-21T20:34:29.864Z,31.52
2023-02-21T20:37:00.134Z,32.78
2023-02-21T20:39:31.920Z,33.53
2023-02-21T20:42:03.300Z,31.92
2023-02-21T20:44:36.118Z,31.13
2023-02-21T20:47:09.913Z,32.33
2023-02-21T20:49:38.977Z,31.67
2023-02-21T20:52:13.808Z,34.03
2023-02-21T20:54:43.061Z,34.75
2023-02-21T20:57:13.515Z,35.17
2023-02-21T20:59:42.596Z,35.08
2023-02-21T21:02:17.471Z,36.67
2023-02-21T21:04:48.525Z,36.25
2023-02-21T21:07:25.556Z,37.38
2023-02-21T21:09:53.978Z,36.47
2023-02-21T21:12:24.692Z,38.97
2023-02-21T21:14:54.623Z,38.90
2023-02-21T21:17:23.533Z,38.83
2023-02-21T21:19:53.393Z,36.85
2023-02-21T21:22:27.594Z,35.63
2023-02-21T21:25:00.602Z,37.58
2023-02-21T21:27:28.921Z,37.35
2023-02-21T21:29:58.429Z,38.70
2023-02-21T21:32:26.773Z,38.78
2023-02-21T21:34:59.465Z,38.20
2023-02-21T21:37:30.816Z,37.15
2023-02-21T21:39:59.201Z,36.05
2023-02-21T21:42:30.394Z,34.65
2023-02-21T21:45:00.974Z,38.33
2023-02-21T21:47:31.953Z,34.50
2023-02-21T21:50:02.506Z,35.47
2023-02-21T21:52:32.892Z,34.45
2023-02-21T21:55:02.281Z,34.15
2023-02-21T21:57:32.459Z,33.72
2023-02-21T22:00:00.768Z,36.17
2023-02-21T22:02:31.373Z,34.92
2023-02-21T22:05:00.041Z,33.50
2023-02-21T22:07:28.313Z,32.67
2023-02-21T22:09:58.071Z,32.28
2023-02-21T22:12:26.572Z,31.83
2023-02-21T22:14:56.538Z,31.67
2023-02-21T22:17:24.876Z,31.30
2023-02-21T22:19:53.677Z,33.05
2023-02-21T22:22:22.201Z,31.48
2023-02-21T22:24:50.487Z,32.50
2023-02-21T22:27:20.951Z,32.97
2023-02-21T22:29:50.764Z,33.72
2023-02-21T22:32:19.157Z,33.15
2023-02-21T22:34:47.512Z,34.03
2023-02-21T22:37:15.724Z,32.25
2023-02-21T22:39:44.132Z,32.60
2023-02-21T22:42:12.670Z,32.90
2023-02-21T22:44:43.395Z,32.95
2023-02-21T22:47:12.633Z,34.78
2023-02-21T22:49:40.967Z,35.90
2023-02-21T22:52:10.770Z,33.40
2023-02-21T22:54:39.068Z,36.60
2023-02-21T22:57:07.390Z,33.30
2023-02-21T22:59:35.911Z,34.08
2023-02-21T23:02:07.344Z,33.60
2023-02-21T23:04:38.117Z,32.47
2023-02-21T23:07:07.826Z,31.98
2023-02-21T23:09:37.173Z,30.38
2023-02-21T23:12:08.893Z,30.17
2023-02-21T23:14:39.448Z,29.65
2023-02-21T23:17:09.270Z,30.23
2023-02-21T23:19:37.698Z,30.25
2023-02-21T23:22:06.048Z,31.98
2023-02-21T23:24:34.772Z,30.60
2023-02-21T23:27:03.473Z,29.75
2023-02-21T23:29:31.951Z,32.17
2023-02-21T23:32:09.526Z,29.98
2023-02-21T23:34:42.270Z,30.45
2023-02-21T23:37:13.311Z,29.80
2023-02-21T23:39:46.815Z,31.10
2023-02-21T23:42:17.535Z,31.40
2023-02-21T23:44:48.337Z,29.75
2023-02-21T23:47:16.730Z,30.38
2023-02-21T23:49:46.953Z,30.23
2023-02-21T23:52:16.369Z,28.35
2023-02-21T23:54:47.163Z,28.58
2023-02-21T23:57:15.635Z,28.05
2023-02-21T23:59:44.143Z,29.67
